createdAt,value
2017-09-21T00:02:16.365Z,11.14
2017-09-21T00:04:43.927Z,11.06
2017-09-21T00:07:11.429Z,10.98
2017-09-21T00:09:38.937Z,10.98
2017-09-21T00:12:06.397Z,10.98
2017-09-21T00:14:33.858Z,10.96
2017-09-21T00:17:01.416Z,10.93
2017-09-21T00:19:28.889Z,10.89
2017-09-21T00:21:56.359Z,10.89
2017-09-21T00:24:24.204Z,10.89
2017-09-21T00:26:51.759Z,10.88
2017-09-21T00:29:19.228Z,10.86
2017-09-21T00:31:46.699Z,10.83
2017-09-21T00:34:14.156Z,10.77
2017-09-21T00:36:41.994Z,10.76
2017-09-21T00:39:09.456Z,10.72
2017-09-21T00:41:36.910Z,10.69
2017-09-21T00:44:04.374Z,10.66
2017-09-21T00:46:31.840Z,10.64
2017-09-21T00:48:59.305Z,10.64
2017-09-21T00:51:26.766Z,10.62
2017-09-21T00:53:54.607Z,10.60
2017-09-21T00:56:22.069Z,10.58
2017-09-21T00:58:49.530Z,10.57
2017-09-21T01:01:17.006Z,10.55
2017-09-21T01:03:44.463Z,10.53
2017-09-21T01:06:11.930Z,10.49
2017-09-21T01:08:39.454Z,10.48
2017-09-21T01:11:06.934Z,10.47
2017-09-21T01:13:34.391Z,10.46
2017-09-21T01:16:02.262Z,10.48
2017-09-21T01:18:29.723Z,10.45
2017-09-21T01:20:57.191Z,10.47
2017-09-21T01:23:24.660Z,10.45
2017-09-21T01:25:52.118Z,10.41
2017-09-21T01:28:20.443Z,10.39
2017-09-21T01:30:47.904Z,10.37
2017-09-21T01:33:15.388Z,10.37
2017-09-21T01:35:42.852Z,10.35
2017-09-21T01:38:10.328Z,10.30
2017-09-21T01:40:37.785Z,10.29
2017-09-21T01:43:05.518Z,10.27
2017-09-21T01:45:32.980Z,10.27
2017-09-21T01:48:00.435Z,10.26
2017-09-21T01:50:27.921Z,10.25
2017-09-21T01:52:55.379Z,10.24
2017-09-21T01:55:22.850Z,10.24
2017-09-21T01:57:50.298Z,10.23
2017-09-21T02:00:17.759Z,10.22
2017-09-21T02:02:45.212Z,10.20
2017-09-21T02:05:12.682Z,10.18
2017-09-21T02:07:40.220Z,10.15
2017-09-21T02:10:08.043Z,10.13
2017-09-21T02:12:35.495Z,10.13
2017-09-21T02:15:02.958Z,10.11
2017-09-21T02:17:30.436Z,10.09
2017-09-21T02:19:57.892Z,10.08
2017-09-21T02:22:25.428Z,10.05
2017-09-21T02:24:52.886Z,10.01
2017-09-21T02:27:20.741Z,10.00
2017-09-21T02:29:48.201Z,9.98
2017-09-21T02:32:15.651Z,9.95
2017-09-21T02:34:43.262Z,9.93
2017-09-21T02:37:10.722Z,9.93
2017-09-21T02:39:38.184Z,9.92
2017-09-21T02:42:05.689Z,9.91
2017-09-21T02:44:33.455Z,9.90
2017-09-21T02:47:00.918Z,9.91
2017-09-21T02:49:28.383Z,9.93
2017-09-21T02:51:55.926Z,9.94
2017-09-21T02:54:23.479Z,9.94
2017-09-21T02:56:50.936Z,9.94
2017-09-21T02:59:18.389Z,9.93
2017-09-21T03:01:46.140Z,9.91
2017-09-21T03:04:13.606Z,9.88
2017-09-21T03:06:41.073Z,9.87
2017-09-21T03:09:08.641Z,9.86
2017-09-21T03:11:36.218Z,9.85
2017-09-21T03:14:03.768Z,9.83
2017-09-21T03:16:31.319Z,9.80
2017-09-21T03:18:59.083Z,9.79
2017-09-21T03:21:26.567Z,9.80
2017-09-21T03:23:54.023Z,9.81
2017-09-21T03:26:21.487Z,9.81
2017-09-21T03:28:49.014Z,9.82
2017-09-21T03:31:16.489Z,9.83
2017-09-21T03:33:43.955Z,9.81
2017-09-21T03:36:11.438Z,9.84
2017-09-21T03:38:38.900Z,9.85
2017-09-21T03:41:06.716Z,9.91
2017-09-21T03:43:34.176Z,9.88
2017-09-21T03:46:01.733Z,9.94
2017-09-21T03:48:29.214Z,10.00
2017-09-21T03:50:56.693Z,9.93
2017-09-21T03:53:24.509Z,9.82
2017-09-21T03:55:51.976Z,9.75
2017-09-21T03:58:19.511Z,9.74
2017-09-21T04:00:46.982Z,9.81
2017-09-21T04:03:14.460Z,9.84
2017-09-21T04:05:41.950Z,9.73
2017-09-21T04:08:09.430Z,9.70
2017-09-21T04:10:36.896Z,9.73
2017-09-21T04:13:04.352Z,9.78
2017-09-21T04:15:31.814Z,9.79
2017-09-21T04:17:59.272Z,9.72
2017-09-21T04:20:26.763Z,9.75
2017-09-21T04:22:54.355Z,9.65
2017-09-21T04:25:21.825Z,9.64
2017-09-21T04:27:49.303Z,9.60
2017-09-21T04:30:17.087Z,9.60
2017-09-21T04:32:44.543Z,9.58
2017-09-21T04:35:12.033Z,9.57
2017-09-21T04:37:39.521Z,9.55
2017-09-21T04:40:06.976Z,9.55
2017-09-21T04:42:34.439Z,9.56
2017-09-21T04:45:01.914Z,9.62
2017-09-21T04:47:29.382Z,9.68
2017-09-21T04:49:56.848Z,9.66
2017-09-21T04:52:24.634Z,9.67
2017-09-21T04:54:52.106Z,9.70
2017-09-21T04:57:19.585Z,9.62
2017-09-21T04:59:47.078Z,9.58
2017-09-21T05:02:14.542Z,9.58
2017-09-21T05:04:42.413Z,9.59
2017-09-21T05:07:09.954Z,9.56
2017-09-21T05:09:37.411Z,9.57
2017-09-21T05:12:05.052Z,9.56
2017-09-21T05:14:32.563Z,9.57
2017-09-21T05:17:00.051Z,9.60
2017-09-21T05:19:27.547Z,9.58
2017-09-21T05:21:55.015Z,9.61
2017-09-21T05:24:22.510Z,9.64
2017-09-21T05:26:50.344Z,9.62
2017-09-21T05:29:17.889Z,9.61
2017-09-21T05:31:45.469Z,9.61
2017-09-21T05:34:12.955Z,9.59
2017-09-21T05:36:40.504Z,9.60
2017-09-21T05:39:07.995Z,9.61
2017-09-21T05:41:35.495Z,9.64
2017-09-21T05:44:02.964Z,9.64
2017-09-21T05:46:30.423Z,9.63
2017-09-21T05:48:58.299Z,9.62
2017-09-21T05:51:25.760Z,9.63
2017-09-21T05:53:53.241Z,9.63
2017-09-21T05:56:20.727Z,9.60
2017-09-21T05:58:48.192Z,9.59
2017-09-21T06:01:15.663Z,9.58
2017-09-21T06:03:43.117Z,9.58
2017-09-21T06:06:10.883Z,9.58
2017-09-21T06:08:38.512Z,9.58
2017-09-21T06:11:05.971Z,9.59
2017-09-21T06:13:33.460Z,9.56
2017-09-21T06:16:00.958Z,9.54
2017-09-21T06:18:28.466Z,9.55
2017-09-21T06:20:55.919Z,9.56
2017-09-21T06:23:23.380Z,9.58
2017-09-21T06:25:50.842Z,9.58
2017-09-21T06:28:18.625Z,9.59
2017-09-21T06:30:46.112Z,9.58
2017-09-21T06:33:13.576Z,9.60
2017-09-21T06:35:41.041Z,9.61
2017-09-21T06:38:08.509Z,9.61
2017-09-21T06:40:35.991Z,9.62
2017-09-21T06:43:03.455Z,9.64
2017-09-21T06:45:31.338Z,9.66
2017-09-21T06:47:58.805Z,9.69
2017-09-21T06:50:26.264Z,9.73
2017-09-21T06:52:53.740Z,9.79
2017-09-21T06:55:21.199Z,9.85
2017-09-21T06:57:48.667Z,9.90
2017-09-21T07:00:16.116Z,9.97
2017-09-21T07:02:43.632Z,10.02
2017-09-21T07:05:11.199Z,10.10
2017-09-21T07:07:39.042Z,10.13
2017-09-21T07:10:06.523Z,10.16
2017-09-21T07:12:34.055Z,10.16
2017-09-21T07:15:01.564Z,10.21
2017-09-21T07:17:29.040Z,10.21
2017-09-21T07:19:56.529Z,10.21
2017-09-21T07:22:24.002Z,10.25
2017-09-21T07:24:51.930Z,10.24
2017-09-21T07:27:19.406Z,10.25
2017-09-21T07:29:46.867Z,10.29
2017-09-21T07:32:14.356Z,10.36
2017-09-21T07:34:41.833Z,10.41
2017-09-21T07:37:09.346Z,10.46
2017-09-21T07:39:36.790Z,10.53
2017-09-21T07:42:04.368Z,10.55
2017-09-21T07:44:31.828Z,10.60
2017-09-21T07:46:59.391Z,10.67
2017-09-21T07:49:26.855Z,10.72
2017-09-21T07:51:54.327Z,10.78
2017-09-21T07:54:21.818Z,10.79
2017-09-21T07:56:49.296Z,10.83
2017-09-21T07:59:17.093Z,10.86
2017-09-21T08:01:44.565Z,10.95
2017-09-21T08:04:12.091Z,11.03
2017-09-21T08:06:39.560Z,11.09
2017-09-21T08:09:07.040Z,11.16
2017-09-21T08:11:34.538Z,11.25
2017-09-21T08:14:02.006Z,11.33
2017-09-21T08:16:29.481Z,11.43
2017-09-21T08:18:56.939Z,11.55
2017-09-21T08:21:24.421Z,11.67
2017-09-21T08:23:51.878Z,11.79
2017-09-21T08:26:19.728Z,11.93
2017-09-21T08:28:47.209Z,12.14
2017-09-21T08:31:14.686Z,12.25
2017-09-21T08:33:42.333Z,12.44
2017-09-21T08:36:09.800Z,12.52
2017-09-21T08:38:37.301Z,12.59
2017-09-21T08:41:04.766Z,12.60
2017-09-21T08:43:32.232Z,12.65
2017-09-21T08:45:59.779Z,12.72
2017-09-21T08:48:27.512Z,12.79
2017-09-21T08:50:55.009Z,12.86
2017-09-21T08:53:22.468Z,12.90
2017-09-21T08:55:49.936Z,12.88
2017-09-21T08:58:17.422Z,12.86
2017-09-21T09:00:44.935Z,12.87
2017-09-21T09:03:12.408Z,12.87
2017-09-21T09:05:39.889Z,12.94
2017-09-21T09:08:07.359Z,13.05
2017-09-21T09:10:34.844Z,13.13
2017-09-21T09:13:03.015Z,13.23
2017-09-21T09:15:30.810Z,13.36
2017-09-21T09:17:58.284Z,13.51
2017-09-21T09:20:25.760Z,13.56
2017-09-21T09:22:53.278Z,13.61
2017-09-21T09:25:20.737Z,13.58
2017-09-21T09:27:48.223Z,13.56
2017-09-21T09:30:15.695Z,13.52
2017-09-21T09:32:43.174Z,13.49
2017-09-21T09:35:10.645Z,13.48
2017-09-21T09:37:38.420Z,13.47
2017-09-21T09:40:05.995Z,13.50
2017-09-21T09:42:33.498Z,13.54
2017-09-21T09:45:01.016Z,13.60
2017-09-21T09:47:28.494Z,13.64
2017-09-21T09:49:55.979Z,13.68
2017-09-21T09:52:23.466Z,13.72
2017-09-21T09:54:50.976Z,13.83
2017-09-21T09:57:18.494Z,13.87
2017-09-21T09:59:46.274Z,13.96
2017-09-21T10:02:13.735Z,14.03
2017-09-21T10:04:41.203Z,14.09
2017-09-21T10:07:08.683Z,14.13
2017-09-21T10:09:36.148Z,14.16
2017-09-21T10:12:04.079Z,14.24
2017-09-21T10:14:31.533Z,14.36
2017-09-21T10:16:59.007Z,14.49
2017-09-21T10:19:26.486Z,14.61
2017-09-21T10:21:53.961Z,14.70
2017-09-21T10:24:21.437Z,14.81
2017-09-21T10:26:48.950Z,14.95
2017-09-21T10:29:16.705Z,15.13
2017-09-21T10:31:44.175Z,15.45
2017-09-21T10:34:11.689Z,15.94
2017-09-21T10:36:39.173Z,16.20
2017-09-21T10:39:06.655Z,16.35
2017-09-21T10:41:34.142Z,16.75
2017-09-21T10:44:01.602Z,17.26
2017-09-21T10:46:29.105Z,17.95
2017-09-21T10:48:56.584Z,18.51
2017-09-21T10:51:24.391Z,18.97
2017-09-21T10:53:51.860Z,19.52
2017-09-21T10:56:19.338Z,20.23
2017-09-21T10:58:46.832Z,20.77
2017-09-21T11:01:14.290Z,21.13
2017-09-21T11:03:42.106Z,21.53
2017-09-21T11:06:09.582Z,21.98
2017-09-21T11:08:37.053Z,22.36
2017-09-21T11:11:04.559Z,22.83
2017-09-21T11:13:32.031Z,23.33
2017-09-21T11:15:59.519Z,23.91
2017-09-21T11:18:26.994Z,24.66
2017-09-21T11:20:54.815Z,25.41
2017-09-21T11:23:22.306Z,26.20
2017-09-21T11:25:49.787Z,26.76
2017-09-21T11:28:18.006Z,27.17
2017-09-21T11:30:45.480Z,27.34
2017-09-21T11:33:12.966Z,27.17
2017-09-21T11:35:40.457Z,26.72
2017-09-21T11:38:07.936Z,25.95
2017-09-21T11:40:35.489Z,25.61
2017-09-21T11:43:02.972Z,25.17
2017-09-21T11:45:30.451Z,24.78
2017-09-21T11:47:57.927Z,24.55
2017-09-21T11:50:25.404Z,24.32
2017-09-21T11:52:52.890Z,24.33
2017-09-21T11:55:20.356Z,24.47
2017-09-21T11:57:47.896Z,24.65
2017-09-21T12:00:15.389Z,24.95
2017-09-21T12:02:42.896Z,25.07
2017-09-21T12:05:10.407Z,25.06
2017-09-21T12:07:38.226Z,25.17
2017-09-21T12:10:05.728Z,25.28
2017-09-21T12:12:33.204Z,25.36
2017-09-21T12:15:00.720Z,25.45
2017-09-21T12:17:29.675Z,25.46
2017-09-21T12:19:57.216Z,25.38
2017-09-21T12:22:24.759Z,25.44
2017-09-21T12:24:52.585Z,25.54
2017-09-21T12:27:20.074Z,25.60
2017-09-21T12:29:47.549Z,25.62
2017-09-21T12:32:15.062Z,25.72
2017-09-21T12:34:42.608Z,25.74
2017-09-21T12:37:10.459Z,25.86
2017-09-21T12:39:37.975Z,25.87
2017-09-21T12:42:05.464Z,25.91
2017-09-21T12:44:33.072Z,25.99
2017-09-21T12:47:01.070Z,26.03
2017-09-21T12:49:28.547Z,26.08
2017-09-21T12:51:56.052Z,26.28
2017-09-21T12:54:23.802Z,26.47
2017-09-21T12:56:51.284Z,26.59
2017-09-21T12:59:18.760Z,26.49
2017-09-21T13:01:46.292Z,26.52
2017-09-21T13:04:13.767Z,26.72
2017-09-21T13:06:41.266Z,26.70
2017-09-21T13:09:08.745Z,26.82
2017-09-21T13:11:36.240Z,26.95
2017-09-21T13:14:03.698Z,27.05
2017-09-21T13:16:31.174Z,27.09
2017-09-21T13:18:58.635Z,27.18
2017-09-21T13:21:26.365Z,27.18
2017-09-21T13:23:53.839Z,26.87
2017-09-21T13:26:21.680Z,26.95
2017-09-21T13:28:49.231Z,26.97
2017-09-21T13:31:16.706Z,27.01
2017-09-21T13:33:44.216Z,27.13
2017-09-21T13:36:11.675Z,26.95
2017-09-21T13:38:39.474Z,26.95
2017-09-21T13:41:06.941Z,26.94
2017-09-21T13:43:34.456Z,26.96
2017-09-21T13:46:01.931Z,27.00
2017-09-21T13:48:29.397Z,26.90
2017-09-21T13:50:56.996Z,26.97
2017-09-21T13:53:24.471Z,27.03
2017-09-21T13:55:51.976Z,27.07
2017-09-21T13:58:19.456Z,27.11
2017-09-21T14:00:46.973Z,27.08
2017-09-21T14:03:14.467Z,26.95
2017-09-21T14:05:41.961Z,26.93
2017-09-21T14:08:09.422Z,26.92
2017-09-21T14:10:37.190Z,26.94
2017-09-21T14:13:04.686Z,27.00
2017-09-21T14:15:32.188Z,26.93
2017-09-21T14:17:59.679Z,27.00
2017-09-21T14:20:27.141Z,26.86
2017-09-21T14:22:54.626Z,26.83
2017-09-21T14:25:22.141Z,26.79
2017-09-21T14:27:49.612Z,26.80
2017-09-21T14:30:17.215Z,26.59
2017-09-21T14:32:45.192Z,26.34
2017-09-21T14:35:12.734Z,26.04
2017-09-21T14:37:41.284Z,25.87
2017-09-21T14:40:08.789Z,25.69
2017-09-21T14:42:36.292Z,25.44
2017-09-21T14:45:03.805Z,25.11
2017-09-21T14:47:31.306Z,24.75
2017-09-21T14:49:59.247Z,24.42
2017-09-21T14:52:26.803Z,24.11
2017-09-21T14:54:54.282Z,23.84
2017-09-21T14:57:21.761Z,23.49
2017-09-21T14:59:49.222Z,23.15
2017-09-21T15:02:16.715Z,22.87
2017-09-21T15:04:44.198Z,22.56
2017-09-21T15:07:11.698Z,22.36
2017-09-21T15:09:39.154Z,22.11
2017-09-21T15:12:06.679Z,21.89
2017-09-21T15:14:34.149Z,21.59
2017-09-21T15:17:01.615Z,21.33
2017-09-21T15:19:29.064Z,21.08
2017-09-21T15:21:56.554Z,20.85
2017-09-21T15:24:24.017Z,20.63
2017-09-21T15:26:51.876Z,20.45
2017-09-21T15:29:19.361Z,20.26
2017-09-21T15:31:46.838Z,20.08
2017-09-21T15:34:14.348Z,19.91
2017-09-21T15:36:41.846Z,19.77
2017-09-21T15:39:09.315Z,19.69
2017-09-21T15:41:36.781Z,19.63
2017-09-21T15:44:04.234Z,19.53
2017-09-21T15:46:31.699Z,19.43
2017-09-21T15:48:59.254Z,19.32
2017-09-21T15:51:26.712Z,19.23
2017-09-21T15:53:54.258Z,19.15
2017-09-21T15:56:21.816Z,19.06
2017-09-21T15:58:49.645Z,18.98
2017-09-21T16:01:17.137Z,18.91
2017-09-21T16:03:44.640Z,18.86
2017-09-21T16:06:12.111Z,18.81
2017-09-21T16:08:39.584Z,18.73
2017-09-21T16:11:07.072Z,18.67
2017-09-21T16:13:34.551Z,18.62
2017-09-21T16:16:02.072Z,18.58
2017-09-21T16:18:29.553Z,18.52
2017-09-21T16:20:57.084Z,18.45
2017-09-21T16:23:24.601Z,18.38
2017-09-21T16:25:53.097Z,18.33
2017-09-21T16:28:20.591Z,18.27
2017-09-21T16:30:48.080Z,18.22
2017-09-21T16:33:15.586Z,18.18
2017-09-21T16:35:43.107Z,18.13
2017-09-21T16:38:10.921Z,18.07
2017-09-21T16:40:38.380Z,18.00
2017-09-21T16:43:05.838Z,17.94
2017-09-21T16:45:33.312Z,17.86
2017-09-21T16:48:00.797Z,17.80
2017-09-21T16:50:28.330Z,17.73
2017-09-21T16:52:55.800Z,17.68
2017-09-21T16:55:23.627Z,17.60
2017-09-21T16:57:51.172Z,17.56
2017-09-21T17:00:18.675Z,17.51
2017-09-21T17:02:46.177Z,17.45
2017-09-21T17:05:13.646Z,17.40
2017-09-21T17:07:41.202Z,17.34
2017-09-21T17:10:08.663Z,17.27
2017-09-21T17:12:36.431Z,17.20
2017-09-21T17:15:03.904Z,17.12
2017-09-21T17:17:31.420Z,17.07
2017-09-21T17:19:58.908Z,17.00
2017-09-21T17:22:26.444Z,16.93
2017-09-21T17:24:53.961Z,16.88
2017-09-21T17:27:21.427Z,16.79
2017-09-21T17:29:48.982Z,16.71
2017-09-21T17:32:16.444Z,16.63
2017-09-21T17:34:44.291Z,16.56
2017-09-21T17:37:11.780Z,16.51
2017-09-21T17:39:39.250Z,16.46
2017-09-21T17:42:06.752Z,16.41
2017-09-21T17:44:34.206Z,16.36
2017-09-21T17:47:01.697Z,16.31
2017-09-21T17:49:29.155Z,16.27
2017-09-21T17:51:56.628Z,16.24
2017-09-21T17:54:24.224Z,16.18
2017-09-21T17:56:51.977Z,16.14
2017-09-21T17:59:19.448Z,16.08
2017-09-21T18:01:46.929Z,16.03
2017-09-21T18:04:14.429Z,15.99
2017-09-21T18:06:41.910Z,15.96
2017-09-21T18:09:09.403Z,15.92
2017-09-21T18:11:36.879Z,15.88
2017-09-21T18:14:04.830Z,15.86
2017-09-21T18:16:32.320Z,15.84
2017-09-21T18:18:59.800Z,15.84
2017-09-21T18:21:27.264Z,15.81
2017-09-21T18:23:54.783Z,15.78
2017-09-21T18:26:22.318Z,15.74
2017-09-21T18:28:49.828Z,15.72
2017-09-21T18:31:17.455Z,15.70
2017-09-21T18:33:44.951Z,15.68
2017-09-21T18:36:12.496Z,15.67
2017-09-21T18:38:40.009Z,15.64
2017-09-21T18:41:07.772Z,15.62
2017-09-21T18:43:35.241Z,15.60
2017-09-21T18:46:02.710Z,15.58
2017-09-21T18:48:30.187Z,15.57
2017-09-21T18:50:57.649Z,15.59
2017-09-21T18:53:25.483Z,15.53
2017-09-21T18:55:53.016Z,15.49
2017-09-21T18:58:20.487Z,15.42
2017-09-21T19:00:47.960Z,15.38
2017-09-21T19:03:15.441Z,15.31
2017-09-21T19:05:42.933Z,15.24
2017-09-21T19:08:10.401Z,15.19
2017-09-21T19:10:38.252Z,15.10
2017-09-21T19:13:05.716Z,15.03
2017-09-21T19:15:33.174Z,14.99
2017-09-21T19:18:00.659Z,14.93
2017-09-21T19:20:28.126Z,14.87
2017-09-21T19:22:55.633Z,14.84
2017-09-21T19:25:23.127Z,14.76
2017-09-21T19:27:50.616Z,14.70
2017-09-21T19:30:18.112Z,14.65
2017-09-21T19:32:45.637Z,14.61
2017-09-21T19:35:13.158Z,14.58
2017-09-21T19:37:40.961Z,14.53
2017-09-21T19:40:08.462Z,14.51
2017-09-21T19:42:35.934Z,14.45
2017-09-21T19:45:03.449Z,14.42
2017-09-21T19:47:31.153Z,14.38
2017-09-21T19:49:58.663Z,14.33
2017-09-21T19:52:26.182Z,14.30
2017-09-21T19:54:53.667Z,14.29
2017-09-21T19:57:21.274Z,14.27
2017-09-21T19:59:48.787Z,14.23
2017-09-21T20:02:16.294Z,14.23
2017-09-21T20:04:44.180Z,14.20
2017-09-21T20:07:11.668Z,14.18
2017-09-21T20:09:39.143Z,14.17
2017-09-21T20:12:06.621Z,14.15
2017-09-21T20:14:34.095Z,14.13
2017-09-21T20:17:01.581Z,14.12
2017-09-21T20:19:29.159Z,14.12
2017-09-21T20:21:56.659Z,14.11
2017-09-21T20:24:24.145Z,14.10
2017-09-21T20:26:51.922Z,14.09
2017-09-21T20:29:19.441Z,14.08
2017-09-21T20:31:46.950Z,14.04
2017-09-21T20:34:14.446Z,14.01
2017-09-21T20:36:41.938Z,13.99
2017-09-21T20:39:09.436Z,13.95
2017-09-21T20:41:36.909Z,13.92
2017-09-21T20:44:04.430Z,13.91
2017-09-21T20:46:31.934Z,13.93
2017-09-21T20:48:59.407Z,13.88
2017-09-21T20:51:26.910Z,13.86
2017-09-21T20:53:54.746Z,13.84
2017-09-21T20:56:22.215Z,13.83
2017-09-21T20:58:49.728Z,13.78
2017-09-21T21:01:17.234Z,13.77
2017-09-21T21:03:44.769Z,13.74
2017-09-21T21:06:12.360Z,13.73
2017-09-21T21:08:39.856Z,13.72
2017-09-21T21:11:07.327Z,13.73
2017-09-21T21:13:34.844Z,13.74
2017-09-21T21:16:02.655Z,13.74
2017-09-21T21:18:30.157Z,13.75
2017-09-21T21:20:57.667Z,13.78
2017-09-21T21:23:25.158Z,13.78
2017-09-21T21:25:52.618Z,13.76
2017-09-21T21:28:20.095Z,13.76
2017-09-21T21:30:47.569Z,13.76
2017-09-21T21:33:15.063Z,13.77
2017-09-21T21:35:42.553Z,13.79
2017-09-21T21:38:10.028Z,13.77
2017-09-21T21:40:37.588Z,13.78
2017-09-21T21:43:05.059Z,13.77
2017-09-21T21:45:32.563Z,13.74
2017-09-21T21:48:00.023Z,13.70
2017-09-21T21:50:27.943Z,13.69
2017-09-21T21:52:55.424Z,13.65
2017-09-21T21:55:22.961Z,13.62
2017-09-21T21:57:50.472Z,13.59
2017-09-21T22:00:17.942Z,13.53
2017-09-21T22:02:45.435Z,13.53
2017-09-21T22:05:12.914Z,13.47
2017-09-21T22:07:40.679Z,13.45
2017-09-21T22:10:08.133Z,13.43
2017-09-21T22:12:35.598Z,13.42
2017-09-21T22:15:03.100Z,13.41
2017-09-21T22:17:30.593Z,13.39
2017-09-21T22:19:58.370Z,13.36
2017-09-21T22:22:25.838Z,13.36
2017-09-21T22:24:53.325Z,13.36
2017-09-21T22:27:20.802Z,13.32
2017-09-21T22:29:48.307Z,13.29
2017-09-21T22:32:15.815Z,13.28
2017-09-21T22:34:43.293Z,13.28
2017-09-21T22:37:11.097Z,13.26
2017-09-21T22:39:38.579Z,13.23
2017-09-21T22:42:06.039Z,13.22
2017-09-21T22:44:33.516Z,13.21
2017-09-21T22:47:00.979Z,13.19
2017-09-21T22:49:28.463Z,13.17
2017-09-21T22:51:55.929Z,13.15
2017-09-21T22:54:23.393Z,13.14
2017-09-21T22:56:50.855Z,13.14
2017-09-21T22:59:18.622Z,13.12
2017-09-21T23:01:46.090Z,13.12
2017-09-21T23:04:13.586Z,13.12
2017-09-21T23:06:41.060Z,13.13
2017-09-21T23:09:08.518Z,13.12
2017-09-21T23:11:35.995Z,13.11
2017-09-21T23:14:03.492Z,13.12
2017-09-21T23:16:30.978Z,13.11
2017-09-21T23:18:58.443Z,13.10
2017-09-21T23:21:25.916Z,13.08
2017-09-21T23:23:53.375Z,13.06
2017-09-21T23:26:21.178Z,13.04
2017-09-21T23:28:48.643Z,13.05
2017-09-21T23:31:16.105Z,13.02
2017-09-21T23:33:43.585Z,12.98
2017-09-21T23:36:11.118Z,12.98
2017-09-21T23:38:38.602Z,12.95
2017-09-21T23:41:06.059Z,12.91
2017-09-21T23:43:33.537Z,12.87
2017-09-21T23:46:01.013Z,12.85
2017-09-21T23:48:28.499Z,12.83
2017-09-21T23:50:55.981Z,12.82
2017-09-21T23:53:23.852Z,12.80
2017-09-21T23:55:51.322Z,12.80
2017-09-21T23:58:18.774Z,12.77
